Time;durP1;ratioP1;P1;durP2;ratioP2;P2;SDS_P1;SDS_P2;PMS_P1;PMS_P2;Temp;Humidity;BMP_temperature;BMP_pressure;BME280_temperature;BME280_humidity;BME280_pressure;Samples;Min_cycle;Max_cycle;Signal;HPM_P1;HPM_P2
2023/06/21 00:01:18;;;;;;;12.70;9.10;;;;;;;13.85;100.00;97482.20;110397;1239;69963;-71
2023/06/21 00:03:52;;;;;;;10.30;8.00;;;;;;;13.81;100.00;97480.95;110375;1244;59789;-69
2023/06/21 00:06:22;;;;;;;10.40;8.10;;;;;;;13.79;100.00;97475.42;110411;1240;59720;-71
2023/06/21 00:08:54;;;;;;;10.20;7.60;;;;;;;13.76;100.00;97477.83;110392;1240;70747;-70
2023/06/21 00:11:24;;;;;;;8.20;7.30;;;;;;;13.73;100.00;97477.08;110284;1241;69636;-70
2023/06/21 00:13:55;;;;;;;11.90;8.60;;;;;;;13.71;100.00;97478.08;110334;1241;69114;-70
2023/06/21 00:16:25;;;;;;;12.00;9.20;;;;;;;13.68;100.00;97473.46;110372;1238;59702;-71
2023/06/21 00:18:56;;;;;;;10.20;8.00;;;;;;;13.63;100.00;97474.20;110382;1242;59714;-70
2023/06/21 00:21:27;;;;;;;9.60;7.80;;;;;;;13.58;100.00;97470.42;110460;1237;70929;-69
2023/06/21 00:24:02;;;;;;;10.20;7.10;;;;;;;13.56;100.00;97471.55;110501;1242;68327;-70
2023/06/21 00:26:33;;;;;;;11.00;8.10;;;;;;;13.54;100.00;97473.77;110648;1239;69203;-69
2023/06/21 00:29:04;;;;;;;9.40;6.90;;;;;;;13.53;100.00;97469.02;110320;1241;59808;-70
2023/06/21 00:31:35;;;;;;;12.00;8.60;;;;;;;13.52;100.00;97470.14;110368;1238;59724;-71
2023/06/21 00:34:05;;;;;;;13.70;10.10;;;;;;;13.47;100.00;97472.41;110479;1240;70947;-71
2023/06/21 00:36:40;;;;;;;11.50;8.90;;;;;;;13.41;100.00;97475.90;110520;1238;68586;-70
2023/06/21 00:39:11;;;;;;;10.60;7.90;;;;;;;13.36;100.00;97477.41;110552;1239;69810;-71
2023/06/21 00:41:42;;;;;;;12.00;9.20;;;;;;;13.31;100.00;97484.15;110287;1241;59741;-71
2023/06/21 00:44:13;;;;;;;12.60;9.40;;;;;;;13.27;100.00;97492.19;110297;1240;59677;-70
2023/06/21 00:46:44;;;;;;;11.00;8.40;;;;;;;13.22;100.00;97489.85;110472;1238;70427;-70
2023/06/21 00:49:15;;;;;;;9.40;7.20;;;;;;;13.21;100.00;97487.86;110407;1241;69704;-69
2023/06/21 00:51:45;;;;;;;;;;;;;;;13.20;100.00;97489.52;110314;1247;69296;-68
2023/06/21 00:54:18;;;;;;;12.40;8.40;;;;;;;13.19;100.00;97486.46;110464;1240;59733;-68
2023/06/21 00:56:49;;;;;;;10.00;7.80;;;;;;;13.19;100.00;97486.65;110472;1240;59693;-70
2023/06/21 00:59:21;;;;;;;10.30;7.80;;;;;;;13.21;100.00;97485.91;110578;1241;71302;-71
2023/06/21 01:01:51;;;;;;;9.30;7.60;;;;;;;13.25;100.00;97491.58;110673;1245;69048;-71
2023/06/21 01:04:27;;;;;;;10.00;9.00;;;;;;;13.26;100.00;97487.33;110678;1240;68720;-69
2023/06/21 01:07:36;;;;;;;11.90;9.10;;;;;;;13.23;100.00;97489.98;110581;1237;59678;-70
2023/06/21 01:10:17;;;;;;;10.40;8.50;;;;;;;13.16;100.00;97490.05;109876;1245;60074;-71
2023/06/21 01:13:21;;;;;;;10.90;7.90;;;;;;;13.13;100.00;97488.04;109760;1244;70663;-71
2023/06/21 01:16:10;;;;;;;12.10;9.40;;;;;;;13.09;100.00;97489.00;110477;1241;68244;-69
2023/06/21 01:18:45;;;;;;;10.70;8.40;;;;;;;13.05;100.00;97485.00;110547;1239;69132;-71
2023/06/21 01:21:19;;;;;;;12.10;9.00;;;;;;;13.01;100.00;97486.33;110578;1239;59743;-71
2023/06/21 01:24:28;;;;;;;12.30;9.10;;;;;;;13.01;100.00;97486.02;110657;1239;59625;-70
2023/06/21 01:27:07;;;;;;;10.50;8.70;;;;;;;13.01;100.00;97482.98;110617;1238;70652;-69
2023/06/21 01:29:45;;;;;;;14.10;9.10;;;;;;;13.00;100.00;97485.55;110617;1239;68069;-68
2023/06/21 01:32:19;;;;;;;10.00;7.40;;;;;;;12.99;100.00;97485.66;110492;1239;69121;-70
2023/06/21 01:34:54;;;;;;;9.30;7.00;;;;;;;12.97;100.00;97485.30;110625;1239;59759;-70
2023/06/21 01:37:27;;;;;;;10.00;8.00;;;;;;;12.96;100.00;97488.71;110615;1239;59692;-70
2023/06/21 01:40:09;;;;;;;9.60;8.10;;;;;;;12.95;100.00;97489.48;110575;1241;71309;-71
2023/06/21 01:42:46;;;;;;;11.00;8.00;;;;;;;12.93;100.00;97493.65;110379;1248;69252;-71
2023/06/21 01:45:18;;;;;;;11.90;8.50;;;;;;;12.90;100.00;97490.23;110423;1243;68525;-70
2023/06/21 01:47:52;;;;;;;11.50;9.50;;;;;;;12.88;100.00;97488.27;110557;1239;60045;-69
2023/06/21 01:50:27;;;;;;;13.20;9.50;;;;;;;12.86;100.00;97493.16;110542;1238;59750;-70
2023/06/21 01:53:00;;;;;;;12.20;8.80;;;;;;;12.85;100.00;97492.77;110496;1241;70729;-71
2023/06/21 01:55:33;;;;;;;12.50;9.40;;;;;;;12.84;100.00;97494.04;110510;1241;68510;-71
2023/06/21 01:58:05;;;;;;;12.00;9.10;;;;;;;12.84;100.00;97493.35;110435;1242;69315;-70
2023/06/21 02:00:38;;;;;;;14.10;10.70;;;;;;;12.82;100.00;97494.35;110600;1239;59740;-70
2023/06/21 02:03:14;;;;;;;13.00;9.30;;;;;;;12.81;100.00;97497.11;110530;1239;59662;-69
2023/06/21 02:05:46;;;;;;;11.40;8.70;;;;;;;12.77;100.00;97500.69;110508;1238;71898;-72
2023/06/21 02:08:18;;;;;;;14.20;9.80;;;;;;;12.75;100.00;97501.00;110583;1237;68460;-70
2023/06/21 02:10:50;;;;;;;13.20;9.50;;;;;;;12.73;100.00;97499.98;110593;1238;68383;-69
2023/06/21 02:13:22;;;;;;;13.50;9.20;;;;;;;12.70;100.00;97501.29;110371;1241;59733;-69
2023/06/21 02:15:53;;;;;;;11.10;7.90;;;;;;;12.69;100.00;97501.55;110363;1240;59753;-69
2023/06/21 02:18:26;;;;;;;13.50;9.50;;;;;;;12.68;100.00;97504.39;110474;1237;71445;-69
2023/06/21 02:20:57;;;;;;;14.70;11.20;;;;;;;12.64;100.00;97500.34;110498;1239;69245;-69
2023/06/21 02:23:28;;;;;;;10.70;8.60;;;;;;;12.60;100.00;97498.97;110467;1240;68297;-69
2023/06/21 02:25:59;;;;;;;11.80;9.70;;;;;;;12.55;100.00;97501.57;110565;1239;59680;-69
2023/06/21 02:28:30;;;;;;;12.90;9.50;;;;;;;12.53;100.00;97503.38;110637;1237;59676;-70
2023/06/21 02:31:04;;;;;;;11.60;9.30;;;;;;;12.52;100.00;97506.20;110234;1239;71410;-70
2023/06/21 02:33:36;;;;;;;12.10;8.80;;;;;;;12.54;100.00;97508.89;110268;1242;69264;-71
2023/06/21 02:36:11;;;;;;;12.60;9.30;;;;;;;12.53;100.00;97510.86;110346;1241;69221;-70
2023/06/21 02:38:45;;;;;;;14.50;11.60;;;;;;;12.53;100.00;97514.73;110383;1241;59706;-70
2023/06/21 02:41:19;;;;;;;16.80;12.30;;;;;;;12.48;100.00;97519.09;110497;1240;59641;-71
2023/06/21 02:43:51;;;;;;;17.90;11.50;;;;;;;12.43;100.00;97518.79;110232;1238;71322;-71
2023/06/21 02:46:22;;;;;;;13.80;10.40;;;;;;;12.40;100.00;97521.16;110656;1241;69293;-70
2023/06/21 02:48:54;;;;;;;14.90;11.50;;;;;;;12.40;100.00;97523.44;110434;1240;68550;-70
2023/06/21 02:51:25;;;;;;;12.40;10.10;;;;;;;12.41;100.00;97523.34;110362;1240;59772;-72
2023/06/21 02:53:56;;;;;;;13.60;10.70;;;;;;;12.43;100.00;97527.87;110446;1240;59748;-71
2023/06/21 02:56:30;;;;;;;14.50;10.80;;;;;;;12.47;100.00;97531.25;110324;1242;70431;-71
2023/06/21 02:59:03;;;;;;;12.00;9.10;;;;;;;12.49;100.00;97531.06;110564;1240;69245;-71
2023/06/21 03:01:34;;;;;;;13.50;9.80;;;;;;;12.53;100.00;97535.17;110595;1237;68287;-70
2023/06/21 03:04:08;;;;;;;14.20;10.70;;;;;;;12.54;100.00;97535.77;110633;1242;59750;-70
2023/06/21 03:06:39;;;;;;;13.70;9.70;;;;;;;12.51;100.00;97534.25;110614;1241;59730;-71
2023/06/21 03:09:09;;;;;;;13.40;9.60;;;;;;;12.51;100.00;97535.35;110415;1241;71331;-71
2023/06/21 03:11:41;;;;;;;11.10;9.00;;;;;;;12.52;100.00;97538.06;110362;1238;68339;-71
2023/06/21 03:14:12;;;;;;;12.20;8.60;;;;;;;12.54;100.00;97543.48;110400;1238;68542;-71
2023/06/21 03:16:44;;;;;;;14.40;10.10;;;;;;;12.55;100.00;97543.20;110268;1241;59703;-71
2023/06/21 03:19:18;;;;;;;10.70;8.30;;;;;;;12.58;100.00;97550.54;110576;1241;59734;-70
2023/06/21 03:21:49;;;;;;;12.80;9.70;;;;;;;12.59;100.00;97549.03;110304;1241;70755;-71
2023/06/21 03:24:18;;;;;;;14.40;9.80;;;;;;;12.61;100.00;97546.73;110262;1243;67650;-70
2023/06/21 03:26:48;;;;;;;12.80;9.60;;;;;;;12.64;100.00;97548.13;109891;1238;67768;-70
2023/06/21 03:29:18;;;;;;;11.50;9.10;;;;;;;12.69;100.00;97550.66;110446;1242;60126;-70
2023/06/21 03:31:48;;;;;;;11.50;8.90;;;;;;;12.76;100.00;97551.70;110177;1239;59932;-70
2023/06/21 03:34:20;;;;;;;11.60;9.60;;;;;;;12.83;100.00;97550.24;110518;1239;71329;-69
2023/06/21 03:36:53;;;;;;;;;;;;;;;12.89;100.00;97551.52;110585;1239;68472;-70
2023/06/21 03:39:25;;;;;;;13.00;9.50;;;;;;;12.94;100.00;97551.09;110266;1240;69301;-71
2023/06/21 03:41:55;;;;;;;13.10;9.50;;;;;;;12.98;100.00;97549.52;110017;1239;59753;-71
2023/06/21 03:44:24;;;;;;;13.10;10.20;;;;;;;13.03;100.00;97549.72;110135;1242;59695;-70
2023/06/21 03:46:54;;;;;;;;;;;;;;;13.10;100.00;97551.27;110389;1240;70455;-68
2023/06/21 03:49:26;;;;;;;11.10;8.40;;;;;;;13.16;100.00;97550.77;110471;1241;68377;-70
2023/06/21 03:51:58;;;;;;;12.50;9.10;;;;;;;13.23;100.00;97551.76;110267;1241;69285;-70
2023/06/21 03:54:29;;;;;;;11.80;9.90;;;;;;;13.35;100.00;97550.34;110536;1241;59694;-69
2023/06/21 03:56:59;;;;;;;11.70;9.40;;;;;;;13.45;100.00;97550.12;110538;1238;59693;-70
2023/06/21 03:59:30;;;;;;;11.10;9.00;;;;;;;13.55;100.00;97549.86;110533;1240;71364;-70
2023/06/21 04:02:00;;;;;;;12.00;9.20;;;;;;;13.64;100.00;97555.60;110496;1240;69851;-70
2023/06/21 04:04:33;;;;;;;11.80;8.90;;;;;;;13.74;100.00;97554.43;110484;1241;69524;-69
2023/06/21 04:07:03;;;;;;;16.10;10.70;;;;;;;13.85;100.00;97558.40;110644;1239;59680;-70
2023/06/21 04:09:34;;;;;;;14.40;10.30;;;;;;;13.93;100.00;97559.84;110451;1237;59709;-69
2023/06/21 04:12:05;;;;;;;16.30;10.80;;;;;;;14.01;100.00;97557.79;110590;1239;70520;-69
2023/06/21 04:14:35;;;;;;;12.20;9.80;;;;;;;14.12;100.00;97562.42;110535;1239;69610;-69
2023/06/21 04:17:06;;;;;;;13.70;10.20;;;;;;;14.21;100.00;97562.13;110468;1238;69605;-69
2023/06/21 04:19:37;;;;;;;11.80;9.20;;;;;;;14.34;100.00;97558.27;110520;1239;59752;-68
2023/06/21 04:22:08;;;;;;;13.60;10.60;;;;;;;14.48;100.00;97555.30;110552;1239;59682;-68
2023/06/21 04:24:38;;;;;;;11.70;9.80;;;;;;;14.61;100.00;97554.04;110423;1237;70611;-68
2023/06/21 04:27:12;;;;;;;;;;;;;;;14.74;100.00;97557.27;110469;1241;69220;-68
2023/06/21 04:29:41;;;;;;;12.00;8.70;;;;;;;14.88;100.00;97562.41;109974;1238;693728;-69
2023/06/21 04:32:11;;;;;;;12.60;9.00;;;;;;;15.00;100.00;97564.30;110569;1237;59695;-69
2023/06/21 04:34:47;;;;;;;12.40;9.20;;;;;;;15.12;100.00;97566.38;110553;1239;59670;-69
2023/06/21 04:37:18;;;;;;;13.80;10.30;;;;;;;15.26;100.00;97572.01;110434;1240;71504;-75
2023/06/21 04:39:47;;;;;;;;;;;;;;;15.35;100.00;97569.63;110331;1243;69296;-71
2023/06/21 04:42:20;;;;;;;16.80;10.70;;;;;;;15.46;100.00;97565.44;110645;1238;69642;-77
2023/06/21 04:44:49;;;;;;;11.30;9.10;;;;;;;15.54;100.00;97561.36;110534;1239;59666;-75
2023/06/21 04:47:18;;;;;;;10.00;8.90;;;;;;;15.67;100.00;97563.07;110593;1238;59766;-74
2023/06/21 04:49:53;;;;;;;11.40;8.80;;;;;;;15.82;100.00;97568.60;110487;1239;71220;-72
2023/06/21 04:52:29;;;;;;;11.00;8.80;;;;;;;15.94;100.00;97565.16;110660;1239;69656;-74
2023/06/21 04:55:12;;;;;;;10.40;9.20;;;;;;;16.04;100.00;97563.17;106833;1277;596982;-72
2023/06/21 04:57:42;;;;;;;9.70;8.60;;;;;;;16.20;100.00;97565.33;109491;1255;58097;-70
2023/06/21 05:00:12;;;;;;;10.50;9.00;;;;;;;16.36;100.00;97563.73;109358;1254;57675;-71
2023/06/21 05:02:42;;;;;;;11.50;9.50;;;;;;;16.47;100.00;97567.09;109605;1252;68841;-69
2023/06/21 05:05:11;;;;;;;;;;;;;;;16.51;100.00;97566.14;109453;1248;69687;-68
2023/06/21 05:07:40;;;;;;;13.10;9.60;;;;;;;16.62;100.00;97564.77;109270;1249;525048;-75
2023/06/21 05:10:10;;;;;;;12.30;9.60;;;;;;;16.83;100.00;97568.45;109869;1246;57735;-71
2023/06/21 05:12:40;;;;;;;11.00;8.20;;;;;;;17.02;100.00;97565.69;109881;1246;57643;-69
2023/06/21 05:15:09;;;;;;;;;;;;;;;17.34;100.00;97568.02;109882;1249;68059;-69
2023/06/21 05:17:38;;;;;;;11.80;9.60;;;;;;;17.62;99.91;97566.02;109844;1246;68493;-68
2023/06/21 05:20:08;;;;;;;11.10;8.80;;;;;;;17.87;98.41;97564.64;110022;1246;69808;-69
2023/06/21 05:22:54;;;;;;;8.90;7.70;;;;;;;18.16;96.26;97562.19;109799;1245;58055;-69
2023/06/21 05:25:23;;;;;;;9.60;8.20;;;;;;;18.37;92.60;97567.06;109920;1245;58134;-69
2023/06/21 05:27:52;;;;;;;8.60;6.90;;;;;;;18.46;91.13;97570.61;109731;1246;70338;-70
2023/06/21 05:30:22;;;;;;;10.70;8.00;;;;;;;18.67;92.90;97575.98;109823;1246;69246;-69
2023/06/21 05:32:54;;;;;;;8.40;7.40;;;;;;;18.79;90.86;97572.70;109824;1245;69260;-68
2023/06/21 05:35:24;;;;;;;9.60;7.90;;;;;;;18.84;90.14;97576.78;109790;1246;58138;-67
2023/06/21 05:37:54;;;;;;;8.60;7.20;;;;;;;18.76;89.43;97579.02;109770;1245;58201;-71
2023/06/21 05:40:23;;;;;;;8.60;6.60;;;;;;;18.73;88.69;97585.83;109787;1249;70362;-68
2023/06/21 05:42:53;;;;;;;7.80;6.80;;;;;;;18.81;89.76;97595.05;110430;1242;69851;-71
2023/06/21 05:45:22;;;;;;;8.80;7.60;;;;;;;18.86;89.24;97595.30;110343;1243;68509;-71
2023/06/21 05:47:52;;;;;;;9.60;7.60;;;;;;;18.90;89.24;97596.50;110445;1242;58099;-70
2023/06/21 05:50:21;;;;;;;9.10;7.90;;;;;;;18.95;89.63;97599.84;110514;1242;58072;-69
2023/06/21 05:52:49;;;;;;;9.10;8.20;;;;;;;18.90;89.55;97602.10;110487;1242;69855;-70
2023/06/21 05:55:19;;;;;;;7.70;6.20;;;;;;;18.86;90.38;97601.63;110385;1242;69785;-69
2023/06/21 05:57:49;;;;;;;10.30;8.30;;;;;;;18.90;90.76;97599.29;110499;1241;68500;-72
2023/06/21 06:00:19;;;;;;;8.00;7.20;;;;;;;18.95;90.55;97602.29;110494;1242;58086;-70
2023/06/21 06:02:48;;;;;;;9.10;7.10;;;;;;;18.99;90.71;97602.11;110458;1242;58090;-69
2023/06/21 06:05:18;;;;;;;7.30;6.30;;;;;;;19.07;90.29;97604.52;110344;1241;69773;-70
2023/06/21 06:07:47;;;;;;;8.70;7.70;;;;;;;19.23;89.74;97606.76;110467;1242;68329;-70
2023/06/21 06:10:16;;;;;;;7.30;6.50;;;;;;;19.38;90.76;97610.75;110497;1247;69259;-69
2023/06/21 06:12:46;;;;;;;8.40;7.10;;;;;;;19.47;88.73;97610.56;110305;1243;58049;-69
2023/06/21 06:15:15;;;;;;;8.40;7.30;;;;;;;19.46;88.23;97607.22;110391;1240;58089;-68
2023/06/21 06:17:46;;;;;;;9.40;8.10;;;;;;;19.57;87.75;97607.94;110446;1242;70783;-70
2023/06/21 06:20:16;;;;;;;8.00;7.10;;;;;;;19.63;86.43;97609.43;110393;1241;69215;-67
2023/06/21 06:22:49;;;;;;;11.00;8.30;;;;;;;19.78;86.03;97613.00;110391;1249;70237;-68
2023/06/21 06:25:18;;;;;;;7.60;6.80;;;;;;;19.93;83.89;97608.32;110450;1242;58104;-69
2023/06/21 06:27:47;;;;;;;6.70;6.00;;;;;;;20.12;82.72;97610.51;110463;1240;58136;-67
2023/06/21 06:30:17;;;;;;;9.50;8.50;;;;;;;20.41;83.74;97610.02;110330;1243;70376;-67
2023/06/21 06:32:46;;;;;;;9.20;7.00;;;;;;;20.59;80.87;97610.02;110322;1241;69251;-67
2023/06/21 06:35:15;;;;;;;7.50;6.70;;;;;;;20.82;80.19;97613.54;110347;1242;70295;-69
2023/06/21 06:37:45;;;;;;;;;;;;;;;21.11;78.49;97605.19;110203;1243;58121;-68
2023/06/21 06:40:14;;;;;;;8.30;6.90;;;;;;;21.48;79.69;97603.23;110442;1240;57991;-70
2023/06/21 06:42:43;;;;;;;10.40;8.00;;;;;;;21.77;72.58;97596.68;110448;1242;69719;-67
2023/06/21 06:45:12;;;;;;;9.30;8.40;;;;;;;22.00;73.37;97597.86;110378;1242;69619;-68
2023/06/21 06:47:41;;;;;;;11.70;10.10;;;;;;;22.17;73.98;97592.34;110494;1251;69863;-67
2023/06/21 06:50:10;;;;;;;11.40;9.10;;;;;;;22.42;73.09;97589.96;110189;1245;58449;-68
2023/06/21 06:52:40;;;;;;;11.20;9.60;;;;;;;22.58;71.54;97593.52;110534;1241;58051;-69
2023/06/21 06:55:09;;;;;;;12.60;10.50;;;;;;;22.61;70.47;97588.19;110383;1241;69786;-70
2023/06/21 06:57:39;;;;;;;12.20;10.00;;;;;;;22.76;70.29;97596.31;110383;1241;69214;-69
2023/06/21 07:00:28;;;;;;;11.80;10.30;;;;;;;22.91;68.30;97590.48;110520;1242;69535;-68
2023/06/21 07:02:57;;;;;;;;;;;;;;;23.05;69.25;97592.75;110621;1239;58092;-69
2023/06/21 07:05:27;;;;;;;13.90;10.90;;;;;;;23.26;68.25;97591.90;110586;1239;58092;-68
2023/06/21 07:07:57;;;;;;;13.30;10.40;;;;;;;23.34;66.31;97591.41;110516;1239;69777;-68
2023/06/21 07:10:26;;;;;;;;;;;;;;;23.37;66.28;97590.73;110528;1239;69400;-67
2023/06/21 07:12:55;;;;;;;;;;;;;;;23.58;65.70;97591.96;110439;1239;69856;-66
2023/06/21 07:15:24;;;;;;;12.70;9.70;;;;;;;23.68;63.41;97589.83;110663;1239;58118;-68
2023/06/21 07:17:55;;;;;;;11.30;9.00;;;;;;;24.04;63.02;97585.48;110638;1239;58065;-68
2023/06/21 07:20:24;;;;;;;11.00;9.00;;;;;;;24.48;62.83;97577.95;110514;1240;69069;-70
2023/06/21 07:22:53;;;;;;;12.60;9.70;;;;;;;24.74;60.68;97581.27;110483;1240;69187;-67
2023/06/21 07:25:23;;;;;;;10.60;9.20;;;;;;;24.86;60.47;97582.58;110630;1241;68486;-66
2023/06/21 07:27:52;;;;;;;10.30;8.60;;;;;;;24.92;58.04;97579.88;110412;1237;58202;-67
2023/06/21 07:30:22;;;;;;;10.50;9.20;;;;;;;25.32;59.46;97576.80;110594;1239;58083;-69
2023/06/21 07:32:51;;;;;;;11.80;9.20;;;;;;;25.87;57.92;97576.09;110685;1242;70195;-70
2023/06/21 07:35:20;;;;;;;;;;;;;;;26.07;55.91;97579.92;110527;1239;69722;-68
2023/06/21 07:37:49;;;;;;;10.20;8.50;;;;;;;25.83;55.60;97577.60;110577;1239;69179;-71
2023/06/21 07:40:18;;;;;;;10.20;9.10;;;;;;;26.09;55.74;97576.39;110410;1239;58135;-74
2023/06/21 07:42:48;;;;;;;8.90;7.40;;;;;;;26.02;55.13;97576.42;110446;1239;58020;-73
2023/06/21 07:45:18;;;;;;;10.30;9.20;;;;;;;26.32;55.27;97576.29;110383;1239;69785;-70
2023/06/21 07:47:47;;;;;;;10.20;8.40;;;;;;;26.42;54.71;97575.47;110363;1238;68322;-72
2023/06/21 07:50:16;;;;;;;12.80;10.00;;;;;;;26.43;54.83;97572.39;110601;1240;69245;-75
2023/06/21 07:52:50;;;;;;;10.10;7.80;;;;;;;26.24;53.60;97568.14;110413;1242;58193;-74
2023/06/21 07:55:19;;;;;;;10.40;7.20;;;;;;;26.50;54.56;97573.11;110522;1239;58113;-73
2023/06/21 07:57:48;;;;;;;10.70;8.10;;;;;;;26.93;54.06;97575.29;110366;1239;69883;-72
2023/06/21 08:00:17;;;;;;;;;;;;;;;27.09;53.83;97572.98;110539;1239;68887;-73
2023/06/21 08:02:51;;;;;;;8.20;7.10;;;;;;;27.19;53.11;97567.78;110505;1245;69104;-72
2023/06/21 08:05:20;;;;;;;8.60;7.30;;;;;;;27.19;51.88;97563.34;110558;1239;58126;-73
2023/06/21 08:07:49;;;;;;;8.30;7.00;;;;;;;27.22;52.18;97560.48;110608;1239;58017;-73
2023/06/21 08:10:18;;;;;;;;;;;;;;;27.31;53.07;97559.73;110589;1239;69793;-71
2023/06/21 08:12:47;;;;;;;7.80;6.40;;;;;;;27.39;51.97;97557.86;110527;1244;69244;-74
2023/06/21 08:15:16;;;;;;;7.70;6.60;;;;;;;27.36;51.63;97563.09;110622;1240;69269;-73
2023/06/21 08:17:49;;;;;;;10.10;8.10;;;;;;;27.28;51.39;97563.58;110826;1244;58133;-71
2023/06/21 08:20:18;;;;;;;7.90;7.10;;;;;;;27.33;53.02;97567.32;110702;1242;58413;-72
2023/06/21 08:22:47;;;;;;;7.90;7.10;;;;;;;27.45;52.77;97566.19;110715;1241;68771;-73
2023/06/21 08:25:15;;;;;;;7.30;6.30;;;;;;;27.54;51.72;97564.85;110893;1246;69207;-71
2023/06/21 08:27:44;;;;;;;6.30;5.70;;;;;;;27.67;51.54;97567.61;110631;1242;69810;-73
2023/06/21 08:30:13;;;;;;;7.80;6.10;;;;;;;27.83;52.40;97567.61;110803;1239;58081;-73
2023/06/21 08:32:42;;;;;;;9.70;7.50;;;;;;;27.94;52.04;97558.44;110769;1240;58057;-75
2023/06/21 08:35:11;;;;;;;8.10;6.60;;;;;;;28.07;50.56;97553.79;110773;1240;69775;-74
2023/06/21 08:37:40;;;;;;;7.20;6.50;;;;;;;28.24;51.13;97546.21;110804;1237;69243;-73
2023/06/21 08:40:09;;;;;;;7.80;7.00;;;;;;;28.38;50.53;97546.85;110632;1238;69065;-74
2023/06/21 08:42:39;;;;;;;8.80;7.60;;;;;;;28.26;49.62;97550.15;110782;1239;58084;-72
2023/06/21 08:45:08;;;;;;;8.90;8.00;;;;;;;28.32;50.17;97548.95;110805;1241;58079;-74
2023/06/21 08:47:38;;;;;;;9.50;8.50;;;;;;;28.34;49.55;97546.30;110872;1239;69090;-73
2023/06/21 08:50:09;;;;;;;9.40;7.40;;;;;;;28.36;50.48;97548.77;110852;1239;69280;-70
2023/06/21 08:52:38;;;;;;;8.90;7.90;;;;;;;28.33;50.26;97547.75;110594;1239;69268;-75
2023/06/21 08:55:09;;;;;;;8.10;7.30;;;;;;;28.19;49.97;97545.09;110800;1240;58147;-74
2023/06/21 08:57:53;;;;;;;8.90;7.20;;;;;;;28.21;50.17;97546.23;110774;1239;58372;-73
2023/06/21 09:00:33;;;;;;;7.60;6.80;;;;;;;28.07;49.49;97542.30;110687;1239;69754;-75
2023/06/21 09:03:55;;;;;;;7.90;7.20;;;;;;;27.93;50.21;97542.87;110729;1239;67850;-72
2023/06/21 09:06:27;;;;;;;7.80;7.10;;;;;;;27.95;50.29;97542.48;110726;1241;69219;-74
2023/06/21 09:08:56;;;;;;;7.60;6.90;;;;;;;27.79;49.78;97544.42;110697;1239;58880;-73
2023/06/21 09:11:27;;;;;;;7.30;6.60;;;;;;;27.95;51.37;97542.65;110565;1241;58901;-73
2023/06/21 09:13:56;;;;;;;8.70;7.50;;;;;;;28.19;50.90;97534.89;110727;1238;70553;-73
2023/06/21 09:16:25;;;;;;;;;;;;;;;28.37;50.48;97529.19;110662;1239;69532;-72
2023/06/21 09:18:54;;;;;;;8.50;7.70;;;;;;;28.51;49.53;97530.42;110902;1237;70227;-72
2023/06/21 09:21:23;;;;;;;;;;;;;;;28.63;49.74;97526.58;110703;1240;58944;-74
2023/06/21 09:23:52;;;;;;;7.70;6.90;;;;;;;28.83;49.99;97524.86;110811;1241;58818;-75
2023/06/21 09:26:21;;;;;;;7.70;6.90;;;;;;;28.81;49.10;97527.87;110763;1240;70382;-76
2023/06/21 09:28:50;;;;;;;8.40;7.10;;;;;;;28.85;48.76;97523.17;110627;1241;69521;-75
2023/06/21 09:31:19;;;;;;;7.10;6.50;;;;;;;28.90;48.19;97522.00;110848;1239;69248;-76
2023/06/21 09:33:51;;;;;;;8.20;6.70;;;;;;;28.98;46.92;97522.35;110650;1237;58947;-74
2023/06/21 09:36:20;;;;;;;7.30;6.60;;;;;;;28.98;47.42;97523.86;110305;1238;58927;-80
2023/06/21 09:38:49;;;;;;;6.90;6.20;;;;;;;29.21;49.14;97526.43;110708;1245;69806;-81
2023/06/21 09:41:19;;;;;;;8.10;6.60;;;;;;;29.40;48.25;97527.75;110819;1245;69643;-80
2023/06/21 09:43:48;;;;;;;6.50;5.90;;;;;;;29.60;48.05;97529.43;110738;1240;69142;-79
2023/06/21 09:46:17;;;;;;;7.00;6.30;;;;;;;29.83;45.59;97526.08;110631;1239;58899;-78
2023/06/21 09:48:46;;;;;;;;;;;;;;;30.37;44.79;97526.42;110787;1236;58897;-80
2023/06/21 09:51:22;;;;;;;8.20;7.50;;;;;;;30.69;42.49;97527.24;110813;1239;69938;-81
2023/06/21 09:53:51;;;;;;;8.50;6.70;;;;;;;30.83;40.97;97523.83;110384;1237;69623;-82
2023/06/21 09:56:20;;;;;;;6.50;5.90;;;;;;;30.61;41.49;97525.08;110693;1239;68639;-82
2023/06/21 09:58:50;;;;;;;7.40;6.30;;;;;;;30.71;42.50;97525.08;110538;1239;58896;-81
2023/06/21 10:01:19;;;;;;;8.00;7.20;;;;;;;30.54;43.12;97522.80;110444;1242;58818;-80
2023/06/21 10:03:49;;;;;;;6.40;5.80;;;;;;;30.12;43.47;97525.02;110427;1242;70513;-80
2023/06/21 10:06:28;;;;;;;8.40;7.50;;;;;;;30.00;43.47;97524.70;110625;1239;68504;-81
2023/06/21 10:08:56;;;;;;;7.80;7.00;;;;;;;29.62;42.23;97525.09;110355;1242;69258;-80
2023/06/21 10:11:26;;;;;;;7.40;6.70;;;;;;;30.08;41.91;97524.38;110547;1242;58949;-79
2023/06/21 10:13:55;;;;;;;7.80;6.90;;;;;;;30.32;41.66;97515.42;110675;1242;58820;-79
2023/06/21 10:16:24;;;;;;;6.30;5.50;;;;;;;30.40;41.78;97518.36;110401;1242;69833;-79
2023/06/21 10:18:57;;;;;;;6.80;5.90;;;;;;;30.57;40.25;97512.02;110410;1242;69675;-80
2023/06/21 10:21:28;;;;;;;6.30;5.80;;;;;;;30.68;39.77;97508.77;110422;1239;69402;-80
2023/06/21 10:23:58;;;;;;;6.00;5.50;;;;;;;31.16;40.27;97510.29;110552;1241;58942;-80
2023/06/21 10:26:31;;;;;;;6.80;6.20;;;;;;;31.28;40.74;97508.98;110624;1240;58838;-80
2023/06/21 10:29:03;;;;;;;7.50;5.90;;;;;;;30.81;40.02;97510.56;110533;1240;69804;-79
2023/06/21 10:31:33;;;;;;;8.40;6.80;;;;;;;31.01;39.37;97510.27;110559;1238;68176;-79
2023/06/21 10:34:07;;;;;;;7.70;7.00;;;;;;;31.08;40.09;97507.98;110653;1238;69850;-79
2023/06/21 10:36:42;;;;;;;7.30;6.70;;;;;;;31.01;40.95;97506.65;110442;1238;58853;-80
2023/06/21 10:39:12;;;;;;;6.90;6.20;;;;;;;30.90;40.98;97506.86;110677;1244;58915;-80
2023/06/21 10:41:42;;;;;;;6.10;5.50;;;;;;;30.58;39.72;97501.96;110569;1242;70633;-79
2023/06/21 10:44:11;;;;;;;7.20;6.60;;;;;;;30.59;40.12;97500.21;110478;1241;68362;-78
2023/06/21 10:46:42;;;;;;;5.80;5.30;;;;;;;30.25;40.46;97501.91;110507;1247;69706;-80
2023/06/21 10:49:12;;;;;;;6.60;6.00;;;;;;;30.64;40.35;97499.61;110765;1238;58889;-79
2023/06/21 10:51:42;;;;;;;6.10;5.50;;;;;;;30.61;39.82;97495.50;110548;1241;58937;-80
2023/06/21 10:54:12;;;;;;;6.20;5.70;;;;;;;30.60;39.02;97493.42;110636;1242;70616;-79
2023/06/21 10:56:42;;;;;;;6.50;5.90;;;;;;;30.24;39.26;97492.10;110732;1239;68265;-79
2023/06/21 10:59:12;;;;;;;6.60;6.00;;;;;;;29.67;39.78;97495.33;110880;1238;69692;-78
2023/06/21 11:01:41;;;;;;;6.60;5.90;;;;;;;30.14;40.73;97491.05;110793;1239;58907;-79
2023/06/21 11:04:10;;;;;;;7.00;6.30;;;;;;;30.66;41.06;97493.39;110881;1239;58820;-78
2023/06/21 11:06:41;;;;;;;6.40;5.80;;;;;;;30.99;40.60;97495.11;110879;1239;70514;-79
2023/06/21 11:09:12;;;;;;;5.80;5.10;;;;;;;31.38;39.74;97497.80;110635;1238;69753;-79
2023/06/21 11:11:50;;;;;;;5.80;5.00;;;;;;;31.68;37.90;97497.27;110752;1238;69208;-79
2023/06/21 11:14:32;;;;;;;5.20;4.80;;;;;;;31.84;37.01;97494.75;110738;1239;58925;-79
2023/06/21 11:17:08;;;;;;;5.40;4.80;;;;;;;31.90;36.66;97491.92;110803;1239;58879;-80
2023/06/21 11:19:37;;;;;;;6.90;6.20;;;;;;;31.65;34.55;97488.42;110872;1239;70556;-78
2023/06/21 11:22:18;;;;;;;5.90;5.30;;;;;;;31.77;36.44;97484.39;110646;1239;69130;-79
2023/06/21 11:24:57;;;;;;;6.00;5.40;;;;;;;31.87;37.38;97484.36;110858;1239;69244;-79
2023/06/21 11:27:27;;;;;;;5.80;5.20;;;;;;;31.95;36.34;97481.72;110611;1240;58947;-79
2023/06/21 11:29:59;;;;;;;5.50;5.00;;;;;;;32.00;36.55;97483.33;110615;1240;58942;-80
2023/06/21 11:32:29;;;;;;;6.60;5.90;;;;;;;32.16;37.28;97483.46;110807;1239;70253;-79
2023/06/21 11:35:00;;;;;;;6.50;5.50;;;;;;;32.14;36.37;97481.86;110738;1239;69294;-78
2023/06/21 11:37:40;;;;;;;5.90;5.30;;;;;;;32.19;37.24;97481.68;110587;1238;69923;-78
2023/06/21 11:40:14;;;;;;;6.40;5.80;;;;;;;32.36;37.03;97481.55;110801;1240;58903;-79
2023/06/21 11:42:49;;;;;;;5.00;4.50;;;;;;;32.21;36.62;97477.90;110787;1239;58890;-79